Climatologie pour Saint-Brevin les Pins
Jour • Résumé pour mars 14, 2017 Système :  Métrique    Anglais   Mixte
« - 1 jour
+ 1 jour »
Jour Semaine Mois Année Personnalisé
  Maximum : Minimum : Moyenne :
Température sous abri : -17.8 °C -17.3 °C -13.1 °C
Point de rosée : -17.8 °C -17.7 °C -14.2 °C
Humidité : Humidity % 71 % 88 %
Vitesse du vent : 0 km/h 0 km/h 5.6 km/h
Rafale : 0 km/h - -
Direction :- - East
Pression : 0 hPa 35024.8 hPa -
Précipitations : 0 mm    
Historical Graphs
 
 
Tableau de données pour mars 14, 2017
Heure Tempé Pt rosée Pression Vent Vitesse Rafale Humidité Taux pluie (/hr) Soleil
-17.8 °C -17.8 °C 0 hPa Calm     Humidity % 0 mm SolarRadiationWatts/m^2 W/m2 Conditions
00:05 -14.3 °C -15.3 °C 35038.3 hPa North 10.3 km/h 12.9 km/h 89 % 0 mm 0 W/m2
00:15 -14.6 °C -15.4 °C 35048.5 hPa North 5.1 km/h 10.3 km/h 90 % 0 mm 0 W/m2
00:20 -14.6 °C -15.4 °C 35048.5 hPa North 2.6 km/h 10.3 km/h 91 % 0 mm 0 W/m2
00:25 -14.7 °C -15.4 °C 35048.5 hPa NNE 2.6 km/h 10.3 km/h 91 % 0 mm 0 W/m2
00:30 -14.7 °C -15.5 °C 35048.5 hPa Calm   10.3 km/h 91 % 0 mm 0 W/m2
00:35 -14.8 °C -15.6 °C 35048.5 hPa NNE 2.6 km/h 7.7 km/h 91 % 0 mm 0 W/m2
00:40 -14.8 °C -15.6 °C 35048.5 hPa NNE 5.1 km/h 7.7 km/h 91 % 0 mm 0 W/m2
00:45 -14.9 °C -15.7 °C 35048.5 hPa NNE 5.1 km/h 12.9 km/h 91 % 0 mm 0 W/m2
00:50 -15.1 °C -15.7 °C 35048.5 hPa North 5.1 km/h 12.9 km/h 92 % 0 mm 0 W/m2
00:55 -15.1 °C -15.7 °C 35048.5 hPa North 7.7 km/h 12.9 km/h 93 % 0 mm 0 W/m2
01:00 -15.1 °C -15.7 °C 35048.5 hPa North 7.7 km/h 10.3 km/h 93 % 0 mm 0 W/m2
01:05 -15.1 °C -15.7 °C 35048.5 hPa Calm   10.3 km/h 93 % 0 mm 0 W/m2
01:10 -15.1 °C -15.7 °C 35048.5 hPa Calm   7.7 km/h 93 % 0 mm 0 W/m2
01:15 -15.2 °C -15.7 °C 35048.5 hPa Calm   5.1 km/h 93 % 0 mm 0 W/m2
01:20 -15.1 °C -15.7 °C 35048.5 hPa Calm   5.1 km/h 93 % 0 mm 0 W/m2
01:25 -15.2 °C -15.7 °C 35048.5 hPa Calm   5.1 km/h 93 % 0 mm 0 W/m2
01:30 -15.2 °C -15.8 °C 35048.5 hPa Calm   2.6 km/h 93 % 0 mm 0 W/m2
01:35 -15.2 °C -15.8 °C 35048.5 hPa Calm     93 % 0 mm 0 W/m2
01:40 -15.3 °C -15.9 °C 35048.5 hPa Calm     93 % 0 mm 0 W/m2
01:45 -15.4 °C -16 °C 35048.5 hPa Calm   2.6 km/h 93 % 0 mm 0 W/m2
01:50 -15.4 °C -15.9 °C 35048.5 hPa Calm   2.6 km/h 94 % 0 mm 0 W/m2
01:55 -15.5 °C -16 °C 35048.5 hPa Calm   2.6 km/h 94 % 0 mm 0 W/m2
02:00 -15.5 °C -16 °C 35048.5 hPa Calm   2.6 km/h 94 % 0 mm 0 W/m2
02:05 -15.6 °C -16.1 °C 35048.5 hPa North 5.1 km/h 5.1 km/h 94 % 0 mm 0 W/m2
02:10 -15.7 °C -16.2 °C 35048.5 hPa Calm   7.7 km/h 94 % 0 mm 0 W/m2
02:15 -15.8 °C -16.3 °C 35048.5 hPa Calm   7.7 km/h 94 % 0 mm 0 W/m2
02:20 -15.8 °C -16.2 °C 35048.5 hPa North 2.6 km/h 5.1 km/h 95 % 0 mm 0 W/m2
02:25 -15.8 °C -16.2 °C 35048.5 hPa Calm   10.3 km/h 95 % 0 mm 0 W/m2
02:30 -15.8 °C -16.2 °C 35048.5 hPa Calm   10.3 km/h 95 % 0 mm 0 W/m2
02:40 -15.7 °C -16.1 °C 35048.5 hPa Calm   7.7 km/h 95 % 0 mm 0 W/m2
02:45 -15.6 °C -16 °C 35048.5 hPa NE 2.6 km/h 10.3 km/h 95 % 0 mm 0 W/m2
02:50 -15.7 °C -16.1 °C 35038.3 hPa NE 5.1 km/h 10.3 km/h 95 % 0 mm 0 W/m2
02:55 -15.6 °C -16 °C 35038.3 hPa Calm   7.7 km/h 95 % 0 mm 0 W/m2
03:00 -15.5 °C -15.9 °C 35038.3 hPa Calm   5.1 km/h 95 % 0 mm 0 W/m2
03:05 -15.4 °C -15.9 °C 35038.3 hPa Calm   5.1 km/h 95 % 0 mm 0 W/m2
03:10 -15.6 °C -16 °C 35038.3 hPa Calm     95 % 0 mm 0 W/m2
03:15 -15.6 °C -16 °C 35038.3 hPa Calm   2.6 km/h 95 % 0 mm 0 W/m2
03:20 -15.7 °C -16.2 °C 35038.3 hPa Calm   2.6 km/h 95 % 0 mm 0 W/m2
03:25 -15.8 °C -16.2 °C 35038.3 hPa Calm     95 % 0 mm 0 W/m2
03:30 -15.9 °C -16.3 °C 35038.3 hPa Calm   2.6 km/h 95 % 0 mm 0 W/m2
03:40 -15.8 °C -16.2 °C 35024.8 hPa Calm   5.1 km/h 95 % 0 mm 0 W/m2
03:45 -15.7 °C -16.2 °C 35024.8 hPa Calm   5.1 km/h 95 % 0 mm 0 W/m2
03:50 -15.7 °C -16.2 °C 35024.8 hPa Calm   2.6 km/h 95 % 0 mm 0 W/m2
03:55 -15.9 °C -16.4 °C 35024.8 hPa Calm   2.6 km/h 94 % 0 mm 0 W/m2
04:00 -16.2 °C -16.6 °C 35024.8 hPa Calm     94 % 0 mm 0 W/m2
04:05 -16.3 °C -16.7 °C 35024.8 hPa Calm     95 % 0 mm 0 W/m2
04:10 -16.2 °C -16.6 °C 35024.8 hPa Calm     95 % 0 mm 0 W/m2
04:20 -16.2 °C -16.4 °C 35024.8 hPa Calm   5.1 km/h 96 % 0 mm 0 W/m2
04:25 -16.2 °C -16.6 °C 35024.8 hPa Calm   2.6 km/h 95 % 0 mm 0 W/m2
04:30 -16.4 °C -16.8 °C 35024.8 hPa Calm     95 % 0 mm 0 W/m2
04:40 -16.6 °C -17 °C 35024.8 hPa Calm     95 % 0 mm 0 W/m2
04:45 -16.6 °C -17.1 °C 35024.8 hPa Calm     95 % 0 mm 0 W/m2
04:50 -16.7 °C -17 °C 35024.8 hPa Calm     96 % 0 mm 0 W/m2
04:55 -16.6 °C -16.9 °C 35024.8 hPa Calm     96 % 0 mm 0 W/m2
05:00 -16.7 °C -17.1 °C 35024.8 hPa Calm   2.6 km/h 96 % 0 mm 0 W/m2
05:10 -16.8 °C -17.1 °C 35024.8 hPa Calm   2.6 km/h 96 % 0 mm 0 W/m2
05:15 -16.8 °C -17.1 °C 35024.8 hPa Calm   2.6 km/h 96 % 0 mm 0 W/m2
05:20 -16.8 °C -17.1 °C 35024.8 hPa Calm   2.6 km/h 96 % 0 mm 0 W/m2
05:25 -16.9 °C -17.2 °C 35024.8 hPa Calm   2.6 km/h 96 % 0 mm 0 W/m2
05:30 -16.9 °C -17.3 °C 35024.8 hPa Calm     96 % 0 mm 0 W/m2
05:35 -17 °C -17.3 °C 35024.8 hPa Calm     96 % 0 mm 0 W/m2
05:40 -17 °C -17.3 °C 35024.8 hPa NE 2.6 km/h 2.6 km/h 96 % 0 mm 0 W/m2
05:45 -17 °C -17.3 °C 35024.8 hPa Calm   2.6 km/h 96 % 0 mm 0 W/m2
05:55 -16.8 °C -17.1 °C 35024.8 hPa Calm   2.6 km/h 97 % 0 mm 0 W/m2
06:00 -16.9 °C -17.2 °C 35024.8 hPa Calm     96 % 0 mm 0 W/m2
06:10 -16.8 °C -17.1 °C 35024.8 hPa Calm     96 % 0 mm 0 W/m2
06:15 -16.8 °C -17.2 °C 35024.8 hPa Calm     96 % 0 mm 0 W/m2
06:20 -16.8 °C -17.2 °C 35024.8 hPa Calm     96 % 0 mm 0 W/m2
06:25 -16.9 °C -17.2 °C 35024.8 hPa Calm     96 % 0 mm 0 W/m2
06:30 -17 °C -17.3 °C 35024.8 hPa Calm   2.6 km/h 96 % 0 mm 0 W/m2
06:40 -17.2 °C -17.5 °C 35024.8 hPa Calm     96 % 0 mm 0 W/m2
06:45 -17.2 °C -17.5 °C 35024.8 hPa Calm   5.1 km/h 96 % 0 mm 0 W/m2
06:50 -17.2 °C -17.5 °C 35038.3 hPa Calm   5.1 km/h 96 % 0 mm 0 W/m2
06:55 -17.1 °C -17.4 °C 35038.3 hPa Calm     97 % 0 mm 0 W/m2
07:00 -17.2 °C -17.5 °C 35038.3 hPa Calm     96 % 0 mm 0 W/m2
07:05 -17.3 °C -17.6 °C 35038.3 hPa Calm   2.6 km/h 96 % 0 mm 0 W/m2
07:10 -17.3 °C -17.5 °C 35048.5 hPa Calm   2.6 km/h 97 % 0 mm 0 W/m2
07:15 -17.3 °C -17.7 °C 35048.5 hPa NE 2.6 km/h 5.1 km/h 96 % 0 mm 0 W/m2
07:20 -17.3 °C -17.6 °C 35048.5 hPa Calm   5.1 km/h 97 % 0 mm 0 W/m2
07:25 -17.3 °C -17.5 °C 35048.5 hPa Calm   7.7 km/h 97 % 0 mm 0 W/m2
07:30 -17.1 °C -17.4 °C 35058.6 hPa NNE 5.1 km/h 10.3 km/h 97 % 0 mm 7 W/m2
07:35 -16.9 °C -17.1 °C 35058.6 hPa NNE 2.6 km/h 12.9 km/h 97 % 0 mm 9 W/m2
07:40 -16.6 °C -16.7 °C 35058.6 hPa North 5.1 km/h 12.9 km/h 98 % 0 mm 12 W/m2
07:45 -16.4 °C -16.7 °C 35058.6 hPa North 5.1 km/h 10.3 km/h 97 % 0 mm 12 W/m2
07:50 -16.4 °C -16.7 °C 35058.6 hPa North 5.1 km/h 10.3 km/h 97 % 0 mm 16 W/m2
07:55 -16.3 °C -16.6 °C 35058.6 hPa NNE 2.6 km/h 10.3 km/h 97 % 0 mm 19 W/m2
08:00 -16.3 °C -16.5 °C 35072.2 hPa Calm   10.3 km/h 97 % 0 mm 25 W/m2
08:10 -16.1 °C -16.3 °C 35072.2 hPa Calm   5.1 km/h 97 % 0 mm 28 W/m2
08:15 -15.9 °C -16.2 °C 35072.2 hPa Calm   5.1 km/h 97 % 0 mm 30 W/m2
08:20 -15.8 °C -15.9 °C 35058.6 hPa Calm   5.1 km/h 98 % 0 mm 32 W/m2
08:25 -15.5 °C -15.7 °C 35072.2 hPa Calm   7.7 km/h 98 % 0 mm 35 W/m2
08:30 -15.3 °C -15.5 °C 35072.2 hPa Calm   12.9 km/h 98 % 0 mm 105 W/m2
08:35 -15.2 °C -15.3 °C 35072.2 hPa NE 2.6 km/h 12.9 km/h 98 % 0 mm 37 W/m2
08:40 -15.1 °C -15.3 °C 35072.2 hPa Calm   7.7 km/h 98 % 0 mm 39 W/m2
08:45 -14.9 °C -15.1 °C 35072.2 hPa ENE 10.3 km/h 10.3 km/h 98 % 0 mm 40 W/m2
08:50 -14.8 °C -15 °C 35072.2 hPa Calm   10.3 km/h 98 % 0 mm 40 W/m2
08:55 -14.7 °C -14.8 °C 35072.2 hPa Calm   12.9 km/h 98 % 0 mm 40 W/m2
09:00 -14.6 °C -14.7 °C 35072.2 hPa Calm   15.6 km/h 98 % 0 mm 40 W/m2
09:10 -14.3 °C -14.4 °C 35072.2 hPa NNE 7.7 km/h 18.2 km/h 98 % 0 mm 42 W/m2
09:15 -14.2 °C -14.3 °C 35072.2 hPa NE 5.1 km/h 18.2 km/h 98 % 0 mm 42 W/m2
09:20 -14.1 °C -14.2 °C 35072.2 hPa NE 7.7 km/h 20.8 km/h 98 % 0 mm 44 W/m2
09:25 -14 °C -14.2 °C 35082.3 hPa ENE 5.1 km/h 20.8 km/h 97 % 0 mm 44 W/m2
09:30 -13.9 °C -14.1 °C 35082.3 hPa NE 15.6 km/h 23.3 km/h 97 % 0 mm 47 W/m2
09:40 -13.7 °C -13.9 °C 35082.3 hPa NNE 12.9 km/h 18.2 km/h 97 % 0 mm 343 W/m2
09:45 -13.6 °C -13.9 °C 35082.3 hPa NE 15.6 km/h 18.2 km/h 96 % 0 mm 359 W/m2
09:50 -13.4 °C -13.7 °C 35082.3 hPa NE 15.6 km/h 20.8 km/h 96 % 0 mm 374 W/m2
09:55 -13.2 °C -13.7 °C 35095.9 hPa NE 10.3 km/h 20.8 km/h 94 % 0 mm 388 W/m2
10:00 -13.1 °C -13.6 °C 35095.9 hPa North 2.6 km/h 23.3 km/h 94 % 0 mm 397 W/m2
10:05 -13 °C -13.6 °C 35095.9 hPa ENE 2.6 km/h 23.3 km/h 93 % 0 mm 415 W/m2
10:10 -12.8 °C -13.4 °C 35095.9 hPa North 12.9 km/h 20.8 km/h 93 % 0 mm 425 W/m2
10:20 -12.7 °C -13.5 °C 35095.9 hPa NE 5.1 km/h 20.8 km/h 90 % 0 mm 450 W/m2
10:30 -12.2 °C -13.1 °C 35106 hPa NNE 10.3 km/h 18.2 km/h 90 % 0 mm 471 W/m2
10:35 -12.2 °C -13.2 °C 35106 hPa Calm   18.2 km/h 88 % 0 mm 482 W/m2
10:40 -12 °C -13.2 °C 35106 hPa NE 2.6 km/h 18.2 km/h 87 % 0 mm 489 W/m2
10:45 -12 °C -13.2 °C 35106 hPa ENE 5.1 km/h 20.8 km/h 86 % 0 mm 503 W/m2
10:50 -11.8 °C -13 °C 35106 hPa North 10.3 km/h 20.8 km/h 87 % 0 mm 503 W/m2
10:55 -11.8 °C -13.2 °C 35106 hPa NNE 10.3 km/h 20.8 km/h 85 % 0 mm 527 W/m2
11:00 -11.7 °C -13.1 °C 35106 hPa ENE 12.9 km/h 20.8 km/h 85 % 0 mm 538 W/m2
11:10 -11.6 °C -12.7 °C 35106 hPa NNE 2.6 km/h 20.8 km/h 87 % 0 mm 555 W/m2
11:15 -11.2 °C -12.6 °C 35106 hPa NNE 10.3 km/h 20.8 km/h 85 % 0 mm 564 W/m2
11:20 -11.3 °C -12.7 °C 35095.9 hPa NE 15.6 km/h 23.3 km/h 84 % 0 mm 566 W/m2
11:30 -11.3 °C -12.6 °C 35095.9 hPa NE 10.3 km/h 20.8 km/h 85 % 0 mm 601 W/m2
11:35 -11.2 °C -13 °C 35095.9 hPa NE 7.7 km/h 20.8 km/h 81 % 0 mm 629 W/m2
11:40 -11.1 °C -12.6 °C 35095.9 hPa NNE 7.7 km/h 20.8 km/h 84 % 0 mm 592 W/m2
11:45 -10.8 °C -12.5 °C 35095.9 hPa North 18.2 km/h 23.3 km/h 82 % 0 mm 638 W/m2
11:55 -10.7 °C -12.4 °C 35095.9 hPa NE 10.3 km/h 20.8 km/h 81 % 0 mm 631 W/m2
12:00 -10.4 °C -12 °C 35095.9 hPa NNE 15.6 km/h 23.3 km/h 83 % 0 mm 640 W/m2
12:05 -10.6 °C -12.6 °C 35095.9 hPa NE 12.9 km/h 23.3 km/h 79 % 0 mm 689 W/m2
12:10 -10.6 °C -12.6 °C 35095.9 hPa Calm   23.3 km/h 79 % 0 mm 684 W/m2
12:15 -10.3 °C -12.2 °C 35095.9 hPa NE 5.1 km/h 23.3 km/h 80 % 0 mm 729 W/m2
12:20 -10.7 °C -12.4 °C 35095.9 hPa ESE 7.7 km/h 23.3 km/h 81 % 0 mm 729 W/m2
12:25 -10.6 °C -12.6 °C 35082.3 hPa ENE 12.9 km/h 25.9 km/h 79 % 0 mm 742 W/m2
12:30 -10.2 °C -11.9 °C 35082.3 hPa NNE 2.6 km/h 25.9 km/h 81 % 0 mm 817 W/m2
12:40 -10.3 °C -12.5 °C 35082.3 hPa NE 18.2 km/h 28.5 km/h 77 % 0 mm 800 W/m2
12:45 -10.2 °C -12.4 °C 35082.3 hPa ENE 10.3 km/h 28.5 km/h 77 % 0 mm 434 W/m2
12:50 -9.6 °C -11.7 °C 35082.3 hPa East 10.3 km/h 25.9 km/h 78 % 0 mm 780 W/m2
12:55 -9.8 °C -12.3 °C 35082.3 hPa ENE 12.9 km/h 23.3 km/h 74 % 0 mm 213 W/m2
13:00 -9.8 °C -12 °C 35082.3 hPa East 7.7 km/h 23.3 km/h 77 % 0 mm 766 W/m2
13:10 -9.9 °C -12.3 °C 35072.2 hPa East 12.9 km/h 28.5 km/h 75 % 0 mm 835 W/m2
13:15 -9.8 °C -12.5 °C 35072.2 hPa ENE 5.1 km/h 28.5 km/h 72 % 0 mm 782 W/m2
13:25 -9.6 °C -12.5 °C 35072.2 hPa East 18.2 km/h 33.6 km/h 71 % 0 mm 682 W/m2
13:35 -9.3 °C -12 °C 35072.2 hPa North 5.1 km/h 23.3 km/h 73 % 0 mm 309 W/m2
13:40 -10 °C -12.8 °C 35072.2 hPa Calm   23.3 km/h 72 % 0 mm 311 W/m2
13:45 -10.2 °C -12.7 °C 35072.2 hPa NNE 20.8 km/h 23.3 km/h 75 % 0 mm 236 W/m2
13:50 -10.4 °C -12.6 °C 35058.6 hPa NNE 7.7 km/h 23.3 km/h 77 % 0 mm 336 W/m2
13:55 -9.7 °C -12 °C 35058.6 hPa North 10.3 km/h 20.8 km/h 76 % 0 mm 819 W/m2
14:00 -9.6 °C -12.5 °C 35058.6 hPa NNW 12.9 km/h 23.3 km/h 71 % 0 mm 255 W/m2
14:10 -9.8 °C -12.4 °C 35058.6 hPa North 7.7 km/h 23.3 km/h 73 % 0 mm 279 W/m2
14:15 -10.1 °C -12.4 °C 35058.6 hPa NE 10.3 km/h 23.3 km/h 75 % 0 mm 861 W/m2
14:20 -10.2 °C -12.8 °C 35058.6 hPa Calm   23.3 km/h 73 % 0 mm 341 W/m2
14:25 -10 °C -12.6 °C 35058.6 hPa NE 10.3 km/h 25.9 km/h 74 % 0 mm 381 W/m2
14:30 -9.9 °C -12.4 °C 35058.6 hPa NE 5.1 km/h 25.9 km/h 74 % 0 mm 413 W/m2
14:35 -9.8 °C -12.4 °C 35058.6 hPa NNE 5.1 km/h 23.3 km/h 73 % 0 mm 397 W/m2
14:40 -9.8 °C -12.4 °C 35058.6 hPa Calm   20.8 km/h 73 % 0 mm 366 W/m2
14:45 -9.9 °C -12.6 °C 35058.6 hPa North 2.6 km/h 23.3 km/h 73 % 0 mm 315 W/m2
14:55 -9.8 °C -11.9 °C 35048.5 hPa Calm   20.8 km/h 78 % 0 mm 309 W/m2
15:00 -9.8 °C -12.2 °C 35048.5 hPa North 2.6 km/h 20.8 km/h 75 % 0 mm 327 W/m2
15:10 -10.2 °C -12.6 °C 35058.6 hPa East 7.7 km/h 25.9 km/h 75 % 0 mm 209 W/m2
15:15 -10.4 °C -12.7 °C 35058.6 hPa NE 7.7 km/h 25.9 km/h 76 % 0 mm 174 W/m2
15:20 -10.5 °C -12.7 °C 35058.6 hPa NE 10.3 km/h 23.3 km/h 77 % 0 mm 146 W/m2
15:25 -10.6 °C -12.7 °C 35058.6 hPa North 5.1 km/h 20.8 km/h 78 % 0 mm 146 W/m2
15:30 -10.6 °C -12.7 °C 35058.6 hPa North 18.2 km/h 20.8 km/h 78 % 0 mm 167 W/m2
15:40 -10.6 °C -12.6 °C 35048.5 hPa North 12.9 km/h 23.3 km/h 79 % 0 mm 144 W/m2
15:45 -10.7 °C -12.6 °C 35048.5 hPa North 2.6 km/h 23.3 km/h 79 % 0 mm 151 W/m2
15:50 -10.6 °C -12.6 °C 35048.5 hPa NNW 12.9 km/h 20.8 km/h 79 % 0 mm 142 W/m2
15:55 -10.7 °C -12.6 °C 35048.5 hPa NE 10.3 km/h 15.6 km/h 79 % 0 mm 144 W/m2
16:00 -10.7 °C -12.6 °C 35048.5 hPa NNE 12.9 km/h 23.3 km/h 79 % 0 mm 130 W/m2
16:05 -10.8 °C -12.8 °C 35048.5 hPa NNE 12.9 km/h 23.3 km/h 78 % 0 mm 132 W/m2
16:10 -10.8 °C -12.9 °C 35048.5 hPa East 18.2 km/h 25.9 km/h 78 % 0 mm 121 W/m2
16:15 -10.8 °C -12.8 °C 35048.5 hPa ENE 5.1 km/h 25.9 km/h 79 % 0 mm 120 W/m2
16:25 -10.8 °C -12.7 °C 35048.5 hPa East 18.2 km/h 23.3 km/h 80 % 0 mm 120 W/m2
16:30 -10.8 °C -12.7 °C 35048.5 hPa Calm   23.3 km/h 80 % 0 mm 120 W/m2
16:35 -10.7 °C -12.6 °C 35048.5 hPa ENE 10.3 km/h 20.8 km/h 80 % 0 mm 107 W/m2
16:45 -10.7 °C -12.7 °C 35048.5 hPa NE 15.6 km/h 15.6 km/h 79 % 0 mm 105 W/m2
16:50 -10.9 °C -12.7 °C 35048.5 hPa North 5.1 km/h 25.9 km/h 80 % 0 mm 111 W/m2
16:55 -10.9 °C -12.8 °C 35048.5 hPa NNE 7.7 km/h 25.9 km/h 80 % 0 mm 88 W/m2
17:00 -10.9 °C -12.8 °C 35048.5 hPa North 10.3 km/h 18.2 km/h 80 % 0 mm 67 W/m2
17:05 -11 °C -12.7 °C 35038.3 hPa North 7.7 km/h 20.8 km/h 81 % 0 mm 56 W/m2
17:10 -11.1 °C -12.7 °C 35048.5 hPa NE 12.9 km/h 20.8 km/h 82 % 0 mm 56 W/m2
17:15 -11.1 °C -12.7 °C 35048.5 hPa NE 5.1 km/h 20.8 km/h 82 % 0 mm 58 W/m2
17:20 -11.1 °C -12.7 °C 35048.5 hPa NNE 5.1 km/h 23.3 km/h 83 % 0 mm 67 W/m2
17:25 -11.1 °C -12.6 °C 35048.5 hPa North 5.1 km/h 23.3 km/h 83 % 0 mm 69 W/m2
17:30 -11.1 °C -12.7 °C 35048.5 hPa NE 10.3 km/h 20.8 km/h 82 % 0 mm 58 W/m2
17:40 -11.1 °C -12.8 °C 35038.3 hPa NE 10.3 km/h 25.9 km/h 82 % 0 mm 60 W/m2
17:45 -11.1 °C -12.8 °C 35038.3 hPa NE 10.3 km/h 18.2 km/h 82 % 0 mm 51 W/m2
17:50 -11.2 °C -12.8 °C 35038.3 hPa NE 7.7 km/h 18.2 km/h 82 % 0 mm 44 W/m2
17:55 -11.2 °C -12.7 °C 35038.3 hPa NE 2.6 km/h 18.2 km/h 83 % 0 mm 37 W/m2
18:05 -11.2 °C -12.7 °C 35038.3 hPa North 2.6 km/h 15.6 km/h 83 % 0 mm 32 W/m2
18:10 -11.2 °C -12.8 °C 35038.3 hPa NNE 5.1 km/h 15.6 km/h 83 % 0 mm 33 W/m2
18:15 -11.2 °C -12.7 °C 35038.3 hPa NNE 10.3 km/h 15.6 km/h 84 % 0 mm 23 W/m2
18:25 -11.2 °C -12.7 °C 35038.3 hPa NNE 7.7 km/h 10.3 km/h 84 % 0 mm 21 W/m2
18:30 -11.2 °C -12.7 °C 35038.3 hPa NE 5.1 km/h 12.9 km/h 84 % 0 mm 18 W/m2
18:35 -11.3 °C -12.7 °C 35038.3 hPa North 2.6 km/h 15.6 km/h 84 % 0 mm 16 W/m2
18:40 -11.3 °C -12.7 °C 35038.3 hPa Calm   15.6 km/h 84 % 0 mm 14 W/m2
18:45 -11.3 °C -12.7 °C 35038.3 hPa NE 2.6 km/h 12.9 km/h 84 % 0 mm 11 W/m2
18:50 -11.3 °C -12.7 °C 35038.3 hPa Calm   12.9 km/h 84 % 0 mm 9 W/m2
18:55 -11.3 °C -12.8 °C 35038.3 hPa NE 12.9 km/h 12.9 km/h 84 % 0 mm 5 W/m2
19:00 -11.3 °C -12.7 °C 35038.3 hPa Calm   12.9 km/h 85 % 0 mm 0 W/m2
19:10 -11.4 °C -12.8 °C 35038.3 hPa NE 2.6 km/h 10.3 km/h 85 % 0 mm 0 W/m2
19:15 -11.4 °C -12.8 °C 35038.3 hPa Calm   10.3 km/h 85 % 0 mm 0 W/m2
19:20 -11.4 °C -12.8 °C 35048.5 hPa NE 2.6 km/h 7.7 km/h 85 % 0 mm 0 W/m2
19:25 -11.4 °C -12.7 °C 35048.5 hPa Calm   7.7 km/h 86 % 0 mm 0 W/m2
19:30 -11.4 °C -12.8 °C 35048.5 hPa Calm   5.1 km/h 85 % 0 mm 0 W/m2
19:40 -11.5 °C -12.7 °C 35048.5 hPa NE 5.1 km/h 5.1 km/h 86 % 0 mm 0 W/m2
19:45 -11.5 °C -12.7 °C 35048.5 hPa NNE 10.3 km/h 12.9 km/h 86 % 0 mm 0 W/m2
19:55 -11.4 °C -12.7 °C 35048.5 hPa NNE 7.7 km/h 12.9 km/h 86 % 0 mm 0 W/m2
20:00 -11.4 °C -12.7 °C 35048.5 hPa Calm   10.3 km/h 86 % 0 mm 0 W/m2
20:05 -11.4 °C -12.7 °C 35048.5 hPa NNE 7.7 km/h 10.3 km/h 86 % 0 mm 0 W/m2
20:10 -11.4 °C -12.7 °C 35038.3 hPa NNE 7.7 km/h 10.3 km/h 86 % 0 mm 0 W/m2
20:15 -11.5 °C -12.7 °C 35038.3 hPa NNE 2.6 km/h 10.3 km/h 87 % 0 mm 0 W/m2
20:20 -11.5 °C -12.7 °C 35038.3 hPa NNE 10.3 km/h 10.3 km/h 87 % 0 mm 0 W/m2
20:25 -11.6 °C -12.7 °C 35048.5 hPa NNE 2.6 km/h 10.3 km/h 87 % 0 mm 0 W/m2
20:30 -11.5 °C -12.7 °C 35048.5 hPa Calm   10.3 km/h 87 % 0 mm 0 W/m2
20:40 -11.5 °C -12.7 °C 35048.5 hPa Calm   10.3 km/h 87 % 0 mm 0 W/m2
20:45 -11.6 °C -12.7 °C 35048.5 hPa NNE 5.1 km/h 10.3 km/h 87 % 0 mm 0 W/m2
20:50 -11.6 °C -12.7 °C 35048.5 hPa Calm   10.3 km/h 87 % 0 mm 0 W/m2
20:55 -11.5 °C -12.7 °C 35048.5 hPa NE 7.7 km/h 15.6 km/h 87 % 0 mm 0 W/m2
21:00 -11.4 °C -12.7 °C 35048.5 hPa NNE 10.3 km/h 15.6 km/h 86 % 0 mm 0 W/m2
21:05 -11.4 °C -12.7 °C 35048.5 hPa NE 7.7 km/h 15.6 km/h 86 % 0 mm 0 W/m2
21:10 -11.5 °C -12.7 °C 35048.5 hPa NE 5.1 km/h 15.6 km/h 87 % 0 mm 0 W/m2
21:15 -11.5 °C -12.7 °C 35048.5 hPa NNE 7.7 km/h 12.9 km/h 87 % 0 mm 0 W/m2
21:25 -11.4 °C -12.6 °C 35048.5 hPa North 7.7 km/h 20.8 km/h 87 % 0 mm 0 W/m2
21:30 -11.4 °C -12.7 °C 35048.5 hPa NE 10.3 km/h 20.8 km/h 86 % 0 mm 0 W/m2
21:35 -11.4 °C -12.7 °C 35048.5 hPa ENE 15.6 km/h 20.8 km/h 86 % 0 mm 0 W/m2
21:40 -11.4 °C -12.7 °C 35048.5 hPa NE 5.1 km/h 20.8 km/h 86 % 0 mm 0 W/m2
21:45 -11.4 °C -12.7 °C 35038.3 hPa NE 18.2 km/h 33.6 km/h 86 % 0 mm 0 W/m2
21:50 -11.4 °C -12.7 °C 35048.5 hPa NE 10.3 km/h 33.6 km/h 86 % 0 mm 0 W/m2
21:55 -11.4 °C -12.7 °C 35048.5 hPa ENE 12.9 km/h 28.5 km/h 86 % 0 mm 0 W/m2
22:00 -11.4 °C -12.7 °C 35048.5 hPa NE 7.7 km/h 28.5 km/h 86 % 0 mm 0 W/m2
22:10 -11.4 °C -12.7 °C 35048.5 hPa NNE 10.3 km/h 28.5 km/h 86 % 0 mm 0 W/m2
22:15 -11.5 °C -12.7 °C 35048.5 hPa NE 5.1 km/h 28.5 km/h 86 % 0 mm 0 W/m2
22:20 -11.5 °C -12.7 °C 35048.5 hPa North 10.3 km/h 23.3 km/h 87 % 0 mm 0 W/m2
22:25 -11.6 °C -12.7 °C 35048.5 hPa ENE 10.3 km/h 25.9 km/h 87 % 0 mm 0 W/m2
22:30 -11.6 °C -12.7 °C 35048.5 hPa NNE 10.3 km/h 25.9 km/h 87 % 0 mm 0 W/m2
22:35 -11.6 °C -12.7 °C 35048.5 hPa NNE 7.7 km/h 25.9 km/h 87 % 0 mm 0 W/m2
22:40 -11.6 °C -12.8 °C 35048.5 hPa NNE 25.9 km/h 31.1 km/h 87 % 0 mm 0 W/m2
22:50 -11.7 °C -12.8 °C 35048.5 hPa NE 15.6 km/h 33.6 km/h 87 % 0 mm 0 W/m2
22:55 -11.7 °C -12.8 °C 35048.5 hPa NE 10.3 km/h 33.6 km/h 88 % 0 mm 0 W/m2
23:00 -11.8 °C -12.8 °C 35048.5 hPa NNW 7.7 km/h 33.6 km/h 88 % 0 mm 0 W/m2
23:05 -11.8 °C -12.8 °C 35048.5 hPa NNE 28.5 km/h 31.1 km/h 88 % 0 mm 0 W/m2
23:10 -11.8 °C -12.8 °C 35048.5 hPa ENE 5.1 km/h 31.1 km/h 88 % 0 mm 0 W/m2
23:15 -11.8 °C -12.9 °C 35048.5 hPa NE 12.9 km/h 28.5 km/h 88 % 0 mm 0 W/m2
23:20 -11.8 °C -12.9 °C 35048.5 hPa NNE 2.6 km/h 25.9 km/h 88 % 0 mm 0 W/m2
23:25 -11.9 °C -12.9 °C 35038.3 hPa NE 18.2 km/h 20.8 km/h 88 % 0 mm 0 W/m2
23:30 -11.9 °C -12.9 °C 35038.3 hPa NE 15.6 km/h 20.8 km/h 88 % 0 mm 0 W/m2
23:40 -12 °C -13.1 °C 35038.3 hPa NE 28.5 km/h 33.6 km/h 88 % 0 mm 0 W/m2
23:45 -12.1 °C -13.1 °C 35038.3 hPa NNE 2.6 km/h 33.6 km/h 88 % 0 mm 0 W/m2
23:50 -12.1 °C -13.1 °C 35038.3 hPa NNE 25.9 km/h 36.2 km/h 88 % 0 mm 0 W/m2
23:55 -12.1 °C -13.1 °C 35038.3 hPa NNE 2.6 km/h 36.2 km/h 88 % 0 mm 0 W/m2
Avec l'autorisation de Weather Underground - 1.5 mb